Time;durP1;ratioP1;P1;durP2;ratioP2;P2;SDS_P1;SDS_P2;PMS_P1;PMS_P2;Temp;Humidity;BMP_temperature;BMP_pressure;BME280_temperature;BME280_humidity;BME280_pressure;Samples;Min_cycle;Max_cycle;Signal;HPM_P1;HPM_P2
2023/10/31 00:00:36;;;;;;;11.17;9.80;;;12.60;99.90;;;12.23;100.00;96214.81;4979629;28;20549;-74
2023/10/31 00:03:04;;;;;;;10.33;8.90;;;12.60;99.90;;;12.15;100.00;96214.25;4972555;28;20569;-72
2023/10/31 00:05:32;;;;;;;9.10;8.20;;;12.60;99.90;;;12.22;100.00;96210.47;4952920;28;20829;-73
2023/10/31 00:08:00;;;;;;;10.10;9.10;;;12.60;99.90;;;12.20;100.00;96221.56;4967451;28;20454;-71
2023/10/31 00:10:27;;;;;;;9.60;8.60;;;12.60;99.90;;;11.70;100.00;96158.97;4961042;28;20479;-74
2023/10/31 00:12:55;;;;;;;9.87;8.87;;;12.60;99.90;;;12.21;100.00;96230.50;4952387;28;20454;-74
2023/10/31 00:15:24;;;;;;;10.20;9.13;;;12.60;99.90;;;12.08;100.00;96224.53;4945408;28;20458;-73
2023/10/31 00:17:52;;;;;;;10.67;9.70;;;12.50;99.90;;;11.88;100.00;96230.69;4967259;28;20560;-71
2023/10/31 00:20:21;;;;;;;10.23;9.30;;;12.40;99.90;;;11.97;100.00;96233.69;4964804;28;20952;-74
2023/10/31 00:22:49;;;;;;;9.57;8.70;;;12.40;99.90;;;12.03;100.00;96243.47;4964419;28;21012;-72
2023/10/31 00:25:16;;;;;;;9.83;8.77;;;12.50;99.90;;;12.11;100.00;96240.25;4968455;28;20963;-73
2023/10/31 00:27:44;;;;;;;11.43;9.20;;;12.50;99.90;;;12.01;100.00;96245.59;4966107;28;20453;-73
2023/10/31 00:30:11;;;;;;;9.37;8.53;;;12.50;99.90;;;12.09;100.00;96252.41;4968042;28;20470;-74
2023/10/31 00:32:39;;;;;;;9.27;8.37;;;12.50;99.90;;;12.04;100.00;96240.50;4974060;28;20525;-73
2023/10/31 00:35:07;;;;;;;8.73;7.20;;;12.50;99.90;;;12.09;100.00;96250.53;4954721;28;20470;-73
2023/10/31 00:37:36;;;;;;;8.30;7.57;;;12.50;99.90;;;12.00;100.00;96244.81;4947250;28;20482;-72
2023/10/31 00:40:05;;;;;;;8.10;7.30;;;12.50;99.90;;;12.08;100.00;96246.19;4966256;28;20485;-74
2023/10/31 00:42:32;;;;;;;8.00;7.10;;;12.50;99.90;;;12.12;100.00;96251.88;4962932;28;20527;-72
2023/10/31 00:45:00;;;;;;;7.30;6.70;;;12.50;99.90;;;12.06;100.00;96250.25;4948660;28;20466;-74
2023/10/31 00:47:27;;;;;;;10.93;7.50;;;12.40;99.90;;;12.02;100.00;96249.97;4964319;28;20463;-73
2023/10/31 00:49:54;;;;;;;7.90;7.10;;;12.40;99.90;;;12.02;100.00;96261.63;4951660;28;20545;-72
2023/10/31 00:52:22;;;;;;;8.20;7.50;;;12.40;99.90;;;11.93;100.00;96255.06;4966492;28;20538;-75
2023/10/31 00:54:50;;;;;;;7.57;6.87;;;12.40;99.90;;;12.00;100.00;96263.75;4957275;28;20461;-75
2023/10/31 00:57:18;;;;;;;7.80;7.20;;;12.40;99.90;;;11.96;100.00;96264.56;4970582;28;20541;-74
2023/10/31 00:59:45;;;;;;;7.60;6.90;;;12.40;99.90;;;11.87;100.00;96266.97;4976662;28;20517;-76
2023/10/31 01:02:12;;;;;;;9.50;7.03;;;12.30;99.90;;;11.95;100.00;96268.34;4953541;28;20455;-72
2023/10/31 01:04:39;;;;;;;7.80;7.03;;;12.30;99.90;;;11.88;100.00;96253.16;4966894;28;20460;-74
2023/10/31 01:07:11;;;;;;;8.43;6.67;;;12.30;99.90;;;11.90;100.00;96253.72;4966635;28;20452;-74
2023/10/31 01:09:39;;;;;;;7.40;5.83;;;12.40;99.90;;;11.93;100.00;96262.38;4967928;28;20460;-73
2023/10/31 01:12:10;;;;;;;6.47;5.87;;;12.40;99.90;;;11.98;100.00;96265.09;4965722;28;20466;-74
2023/10/31 01:14:38;;;;;;;6.87;6.10;;;12.30;99.90;;;12.05;100.00;96260.25;4982327;28;20967;-74
2023/10/31 01:17:05;;;;;;;6.77;6.17;;;12.30;99.90;;;12.02;100.00;96264.31;4962826;28;20475;-72
2023/10/31 01:19:32;;;;;;;6.40;5.80;;;12.30;99.90;;;12.13;100.00;96264.31;4970238;28;20467;-73
2023/10/31 01:22:00;;;;;;;6.10;5.50;;;12.40;99.90;;;12.14;100.00;96265.97;4964738;28;20958;-74
2023/10/31 01:24:27;;;;;;;5.03;4.63;;;12.40;99.90;;;11.97;100.00;96272.38;4967118;28;20944;-72
2023/10/31 01:26:54;;;;;;;5.00;4.50;;;12.40;99.90;;;12.00;100.00;96277.28;4961246;28;20529;-73
2023/10/31 01:29:23;;;;;;;5.37;4.63;;;12.40;99.90;;;11.98;100.00;96281.31;4977561;28;20470;-73
2023/10/31 01:31:50;;;;;;;4.50;4.10;;;12.40;99.90;;;11.87;100.00;96278.59;4967319;28;20532;-73
2023/10/31 01:34:17;;;;;;;4.50;3.87;;;12.40;99.90;;;11.99;100.00;96281.06;4948560;28;20456;-69
2023/10/31 01:36:45;;;;;;;3.33;3.10;;;12.40;99.90;;;11.96;100.00;96276.16;4966869;28;20483;-70
2023/10/31 01:39:12;;;;;;;5.07;3.50;;;12.40;99.90;;;11.90;100.00;96266.44;4968066;28;20457;-74
2023/10/31 01:41:42;;;;;;;5.10;2.87;;;12.30;99.90;;;11.98;100.00;96273.22;4965577;28;20955;-73
2023/10/31 01:44:09;;;;;;;2.93;2.60;;;12.30;99.90;;;11.91;100.00;96273.47;4966429;28;20464;-72
2023/10/31 01:46:39;;;;;;;2.50;2.30;;;12.30;99.60;;;12.00;100.00;96262.94;4965193;28;20566;-72
2023/10/31 01:49:06;;;;;;;2.10;1.90;;;12.40;99.50;;;11.91;100.00;96273.47;4940065;28;20458;-72
2023/10/31 01:51:33;;;;;;;2.20;2.10;;;12.30;99.60;;;11.88;100.00;96269.38;4965852;28;20489;-76
2023/10/31 01:54:02;;;;;;;1.97;1.87;;;12.30;99.40;;;11.83;100.00;96269.38;4949297;28;21116;-71
2023/10/31 01:56:29;;;;;;;2.00;1.90;;;12.30;99.30;;;11.73;100.00;96262.06;4966572;28;20457;-72
2023/10/31 01:58:56;;;;;;;1.70;1.60;;;12.30;98.80;;;11.83;100.00;96268.56;4967339;28;20520;-73
2023/10/31 02:01:24;;;;;;;1.30;1.20;;;12.30;99.00;;;11.74;100.00;96263.69;4964493;28;20461;-74
2023/10/31 02:03:54;;;;;;;1.50;1.40;;;12.20;99.00;;;11.79;100.00;96279.13;4967925;28;20987;-73
2023/10/31 02:06:22;;;;;;;1.77;1.67;;;12.20;99.30;;;11.81;100.00;96290.47;4963491;28;20503;-71
2023/10/31 02:08:49;;;;;;;1.37;1.27;;;12.20;97.80;;;11.80;100.00;96296.97;4966176;28;20448;-74
2023/10/31 02:11:17;;;;;;;1.83;1.00;;;12.20;98.20;;;11.84;100.00;96289.94;4965051;28;20467;-72
2023/10/31 02:13:44;;;;;;;1.20;1.10;;;12.20;98.00;;;11.93;100.00;96297.56;4965916;28;20468;-70
2023/10/31 02:16:11;;;;;;;3.43;1.13;;;12.20;97.20;;;11.87;100.00;96262.34;4965952;28;20513;-70
2023/10/31 02:18:39;;;;;;;1.13;0.73;;;12.30;97.30;;;11.61;99.83;96243.34;4965796;28;20489;-73
2023/10/31 02:21:08;;;;;;;0.90;0.70;;;12.20;96.30;;;11.80;98.74;96288.84;4965462;28;20541;-74
2023/10/31 02:23:36;;;;;;;0.80;0.73;;;12.20;94.80;;;11.85;98.04;96313.22;4963583;28;20462;-74
2023/10/31 02:26:04;;;;;;;0.60;0.50;;;12.20;94.70;;;11.54;100.00;96306.88;4969246;28;20454;-74
2023/10/31 02:28:31;;;;;;;1.70;0.97;;;12.10;94.80;;;11.52;100.00;96307.13;4953662;28;20509;-74
2023/10/31 02:30:59;;;;;;;0.70;0.50;;;12.10;94.60;;;11.47;99.56;96313.34;4963874;28;20470;-74
2023/10/31 02:33:26;;;;;;;2.73;0.60;;;12.10;94.10;;;11.38;100.00;96314.94;4967338;28;20447;-72
2023/10/31 02:35:54;;;;;;;1.20;1.10;;;12.00;94.20;;;11.43;100.00;96316.81;4964487;28;20469;-70
2023/10/31 02:38:22;;;;;;;0.80;0.80;;;12.00;94.30;;;11.31;100.00;96304.34;4966932;28;20533;-71
2023/10/31 02:40:51;;;;;;;0.60;0.60;;;12.00;94.90;;;11.55;99.20;96325.53;4963169;28;20449;-73
2023/10/31 02:43:19;;;;;;;0.70;0.63;;;12.00;94.40;;;11.38;100.00;96328.44;4949231;28;20460;-72
2023/10/31 02:45:46;;;;;;;1.17;0.90;;;12.00;94.50;;;11.26;100.00;96336.72;4966811;28;20462;-73
2023/10/31 02:48:13;;;;;;;1.83;0.80;;;12.00;94.40;;;11.31;100.00;96342.19;4947363;28;20455;-70
2023/10/31 02:50:41;;;;;;;0.87;0.83;;;11.80;94.40;;;11.23;98.32;96345.38;4960519;28;20473;-72
2023/10/31 02:53:08;;;;;;;0.60;0.50;;;11.90;93.40;;;11.29;98.23;96355.13;4967298;28;20561;-73
2023/10/31 02:55:35;;;;;;;8.20;1.43;;;11.80;93.50;;;11.20;97.81;96367.53;4967422;28;21148;-74
2023/10/31 02:58:04;;;;;;;0.57;0.57;;;11.90;93.20;;;11.29;97.92;96371.34;4968490;28;20487;-76
2023/10/31 03:00:31;;;;;;;0.83;0.70;;;11.90;93.30;;;11.22;98.45;96368.06;4965740;28;20459;-72
2023/10/31 03:02:59;;;;;;;1.07;0.90;;;11.90;93.30;;;11.34;99.24;96368.69;4967908;28;21113;-74
2023/10/31 03:05:26;;;;;;;0.67;0.67;;;11.90;94.10;;;11.20;96.79;96379.13;4968678;28;20499;-72
2023/10/31 03:07:54;;;;;;;0.50;0.50;;;11.90;92.70;;;11.16;97.21;96388.06;4945636;28;21087;-75
2023/10/31 03:10:21;;;;;;;0.97;0.73;;;11.80;92.40;;;11.01;94.48;96386.03;4965424;28;20615;-73
2023/10/31 03:12:49;;;;;;;0.67;0.67;;;11.80;91.80;;;10.92;95.17;96377.59;4947792;28;20458;-75
2023/10/31 03:15:18;;;;;;;0.90;0.67;;;11.70;91.30;;;10.91;94.37;96384.88;4966529;28;20468;-74
2023/10/31 03:17:45;;;;;;;0.60;0.60;;;11.60;91.40;;;10.79;94.33;96386.13;4948750;28;20557;-74
2023/10/31 03:20:13;;;;;;;3.30;1.00;;;11.50;91.00;;;10.74;96.58;96384.19;4969494;28;20461;-71
2023/10/31 03:22:40;;;;;;;0.90;0.90;;;11.50;91.80;;;10.60;96.73;96387.28;4968366;28;20842;-72
2023/10/31 03:25:08;;;;;;;0.93;0.93;;;11.30;91.60;;;10.51;97.16;96394.25;4968948;28;20540;-75
2023/10/31 03:27:36;;;;;;;1.53;0.70;;;11.30;92.20;;;10.36;99.61;96392.16;4967156;28;20463;-74
2023/10/31 03:30:04;;;;;;;1.53;1.00;;;11.10;93.00;;;10.34;100.00;96388.91;4966271;28;20516;-74
2023/10/31 03:32:34;;;;;;;0.70;0.70;;;11.10;93.90;;;10.36;100.00;96375.97;4962936;28;20457;-72
2023/10/31 03:35:01;;;;;;;3.53;1.57;;;11.10;94.70;;;10.39;100.00;96394.38;4965207;28;20544;-72
2023/10/31 03:37:28;;;;;;;1.30;1.17;;;11.00;94.90;;;10.37;100.00;96398.38;4963874;28;20964;-72
2023/10/31 03:39:55;;;;;;;1.17;1.00;;;11.00;94.90;;;10.42;100.00;96398.47;4966909;28;20477;-73
2023/10/31 03:42:22;;;;;;;1.40;1.30;;;11.00;95.00;;;10.42;100.00;96406.56;4966966;28;20455;-72
2023/10/31 03:44:50;;;;;;;1.07;0.97;;;11.10;95.10;;;10.52;100.00;96411.25;4970231;28;20463;-72
2023/10/31 03:47:17;;;;;;;1.40;1.20;;;11.10;95.20;;;10.44;100.00;96407.13;4965760;28;21021;-72
2023/10/31 03:49:45;;;;;;;1.63;1.23;;;11.10;94.90;;;10.37;99.44;96399.19;4967349;28;20466;-72
2023/10/31 03:52:13;;;;;;;2.53;1.10;;;11.10;94.10;;;10.46;99.66;96419.31;4970047;28;20469;-72
2023/10/31 03:54:40;;;;;;;0.80;0.80;;;11.10;94.00;;;10.42;98.35;96395.75;4970000;28;20453;-73
2023/10/31 03:57:07;;;;;;;5.27;1.10;;;11.00;93.40;;;10.31;95.81;96395.63;4949355;28;20460;-74
2023/10/31 03:59:38;;;;;;;1.43;0.77;;;11.00;91.90;;;10.17;94.72;96400.59;4962377;28;20465;-75
2023/10/31 04:02:05;;;;;;;2.20;0.80;;;10.90;91.30;;;10.14;94.47;96409.19;4961479;28;20536;-73
2023/10/31 04:04:32;;;;;;;1.60;1.03;;;10.90;91.30;;;10.23;95.86;96419.53;4955467;28;20461;-75
2023/10/31 04:07:01;;;;;;;0.97;0.90;;;10.90;91.90;;;10.17;94.72;96427.59;4968543;28;20452;-75
2023/10/31 04:09:28;;;;;;;1.80;0.83;;;10.80;91.70;;;10.20;95.06;96429.78;4945241;28;20531;-73
2023/10/31 04:11:55;;;;;;;2.20;0.80;;;10.80;91.50;;;10.26;93.50;96432.56;4975292;28;20451;-74
2023/10/31 04:14:23;;;;;;;1.40;1.00;;;10.80;91.30;;;10.19;93.99;96419.25;4953675;28;20955;-74
2023/10/31 04:16:50;;;;;;;0.90;0.73;;;10.80;91.30;;;10.13;94.94;96426.47;4941873;28;20459;-74
2023/10/31 04:19:18;;;;;;;1.07;0.97;;;10.70;91.40;;;10.12;93.77;96430.22;4967300;28;20480;-73
2023/10/31 04:21:45;;;;;;;1.00;0.87;;;10.80;91.30;;;10.15;93.33;96432.41;4951658;28;20456;-71
2023/10/31 04:24:15;;;;;;;1.53;1.37;;;10.80;91.20;;;10.16;94.05;96431.34;4969265;28;20470;-70
2023/10/31 04:26:42;;;;;;;1.50;1.20;;;10.70;91.30;;;10.02;93.88;96430.09;4947358;28;20460;-72
2023/10/31 04:29:09;;;;;;;1.93;1.30;;;10.70;91.00;;;9.99;95.27;96427.91;4972163;28;20452;-72
2023/10/31 04:31:37;;;;;;;1.53;1.43;;;10.70;91.50;;;10.01;95.67;96423.06;4972604;28;20569;-74
2023/10/31 04:34:04;;;;;;;1.47;1.20;;;10.60;92.00;;;9.93;96.01;96432.41;4966033;28;20926;-74
2023/10/31 04:36:31;;;;;;;1.57;1.03;;;10.60;91.70;;;9.98;95.75;96424.38;4950003;28;20463;-76
2023/10/31 04:38:58;;;;;;;1.90;1.50;;;10.60;91.80;;;10.01;95.71;96428.47;4966959;28;20580;-73
2023/10/31 04:41:26;;;;;;;1.30;1.20;;;10.60;91.70;;;9.87;95.98;96439.63;4949731;28;21024;-75
2023/10/31 04:43:55;;;;;;;1.27;1.17;;;10.60;92.10;;;9.81;96.46;96440.63;4962409;28;20535;-71
2023/10/31 04:46:22;;;;;;;1.43;1.33;;;10.50;92.00;;;9.76;95.85;96454.03;4965360;28;20551;-72
2023/10/31 04:48:49;;;;;;;1.60;1.33;;;10.50;91.80;;;9.81;95.69;96446.03;4967476;28;20532;-72
2023/10/31 04:51:17;;;;;;;1.50;1.40;;;10.50;91.80;;;9.71;96.69;96440.47;4965697;28;20550;-72
2023/10/31 04:53:44;;;;;;;1.27;1.23;;;10.40;91.80;;;9.73;96.97;96449.13;4967774;28;20924;-74
2023/10/31 04:56:14;;;;;;;1.40;1.27;;;10.40;91.90;;;9.56;96.71;96420.31;4953237;28;21436;-72
2023/10/31 04:58:43;;;;;;;1.63;1.53;;;10.40;92.20;;;9.42;98.21;96444.13;4964529;28;20553;-72
2023/10/31 05:01:10;;;;;;;1.80;1.13;;;10.40;92.30;;;9.58;97.85;96457.84;4955058;28;20481;-70
2023/10/31 05:03:39;;;;;;;5.63;1.20;;;10.30;92.20;;;9.57;96.58;96448.91;4965373;28;20456;-73
2023/10/31 05:06:07;;;;;;;1.77;1.40;;;10.30;92.20;;;9.42;96.51;96457.59;4966049;28;20460;-73
2023/10/31 05:08:34;;;;;;;2.30;1.50;;;10.30;91.90;;;9.46;96.60;96466.00;4953460;28;20990;-72
2023/10/31 05:11:01;;;;;;;1.50;1.30;;;10.30;91.70;;;9.45;96.56;96475.97;4967779;28;20954;-74
2023/10/31 05:13:29;;;;;;;1.73;1.63;;;10.20;91.70;;;9.50;96.09;96472.56;4957805;28;20449;-72
2023/10/31 05:15:57;;;;;;;2.60;1.30;;;10.20;91.90;;;9.49;95.78;96477.13;4966941;28;20470;-70
2023/10/31 05:18:24;;;;;;;1.90;1.30;;;10.20;91.70;;;9.40;95.35;96472.38;4965285;28;20479;-73
2023/10/31 05:20:52;;;;;;;6.97;1.50;;;10.20;91.40;;;9.50;95.97;96486.03;4966184;28;20458;-71
2023/10/31 05:23:19;;;;;;;2.37;1.10;;;10.20;91.70;;;9.55;94.86;96486.09;4966297;28;20523;-73
2023/10/31 05:25:47;;;;;;;0.90;0.90;;;10.20;91.70;;;9.47;95.46;96481.94;4961858;28;20454;-72
2023/10/31 05:28:14;;;;;;;1.10;1.00;;;10.20;91.60;;;9.47;95.34;96476.56;4946361;28;20439;-71
2023/10/31 05:30:41;;;;;;;1.37;1.10;;;10.20;91.50;;;9.49;94.49;96492.50;4947872;28;20772;-71
2023/10/31 05:33:11;;;;;;;1.20;1.10;;;10.20;91.20;;;9.49;93.79;96500.56;4965655;28;21001;-75
2023/10/31 05:35:38;;;;;;;1.00;0.90;;;10.20;91.00;;;9.41;94.49;96492.88;4950186;28;20455;-73
2023/10/31 05:38:05;;;;;;;2.40;0.90;;;10.10;91.00;;;9.38;94.97;96493.38;4964077;28;20506;-73
2023/10/31 05:40:35;;;;;;;5.60;1.43;;;10.20;91.20;;;9.34;95.23;96507.34;4964117;28;20507;-73
2023/10/31 05:43:02;;;;;;;1.03;0.90;;;10.10;91.20;;;9.38;93.05;96493.38;4965360;28;20537;-74
2023/10/31 05:45:31;;;;;;;1.40;0.90;;;10.10;90.80;;;9.39;93.41;96503.09;4949226;28;20545;-73
2023/10/31 05:47:58;;;;;;;1.13;0.70;;;10.00;91.00;;;9.39;93.16;96498.50;4960446;28;20462;-74
2023/10/31 05:50:26;;;;;;;1.00;0.70;;;10.00;90.70;;;9.29;92.04;96491.09;4963741;28;20526;-73
2023/10/31 05:52:54;;;;;;;1.87;1.23;;;10.00;90.50;;;9.34;91.96;96485.78;4968039;28;20463;-74
2023/10/31 05:55:21;;;;;;;1.17;1.07;;;10.00;90.30;;;9.54;91.70;96492.56;4967291;28;20551;-75
2023/10/31 05:57:49;;;;;;;2.20;0.80;;;10.20;90.60;;;9.46;90.82;96501.03;4967433;28;20472;-73
2023/10/31 06:00:17;;;;;;;0.83;0.83;;;10.20;89.90;;;9.55;91.08;96512.22;4965901;28;20496;-72
2023/10/31 06:02:44;;;;;;;0.90;0.80;;;10.20;89.70;;;9.49;89.79;96519.44;4945403;28;20504;-70
2023/10/31 06:05:12;;;;;;;1.10;0.80;;;10.20;89.20;;;9.62;89.02;96511.00;4956122;28;20451;-70
2023/10/31 06:07:39;;;;;;;0.90;0.80;;;10.20;89.20;;;9.63;88.88;96526.16;4964048;28;20474;-70
2023/10/31 06:10:08;;;;;;;1.13;0.80;;;10.30;88.70;;;9.62;88.75;96513.69;4964129;28;20476;-69
2023/10/31 06:12:35;;;;;;;1.57;1.20;;;10.30;88.60;;;9.61;88.82;96525.56;4965201;28;20472;-70
2023/10/31 06:15:04;;;;;;;1.43;0.80;;;10.30;88.40;;;9.49;88.43;96531.03;4948008;28;20450;-71
2023/10/31 06:17:33;;;;;;;1.13;0.80;;;10.30;88.00;;;9.55;88.54;96529.25;4965868;28;20465;-72
2023/10/31 06:20:02;;;;;;;0.80;0.80;;;10.30;88.00;;;9.42;88.83;96534.94;4965407;28;20522;-71
2023/10/31 06:22:29;;;;;;;0.80;0.63;;;10.30;87.90;;;9.57;87.88;96532.50;4965440;28;20457;-71
2023/10/31 06:24:58;;;;;;;1.77;0.90;;;10.30;87.90;;;9.48;87.60;96544.78;4965383;28;20465;-75
2023/10/31 06:27:25;;;;;;;2.67;0.87;;;10.30;87.40;;;9.61;88.46;96551.72;4968573;28;20449;-73
2023/10/31 06:29:52;;;;;;;1.17;0.80;;;10.40;87.70;;;9.77;88.53;96547.38;4969971;28;20455;-72
2023/10/31 06:32:20;;;;;;;1.47;0.87;;;10.50;87.90;;;9.67;87.08;96569.59;4968013;28;20898;-74
2023/10/31 06:34:47;;;;;;;0.83;0.83;;;10.50;86.80;;;9.91;86.34;96564.84;4970109;28;20472;-74
2023/10/31 06:37:14;;;;;;;1.00;0.83;;;10.60;87.10;;;9.99;86.65;96565.50;4968213;28;20460;-73
2023/10/31 06:39:41;;;;;;;0.80;0.70;;;10.70;88.00;;;9.82;86.46;96571.75;4966304;28;20583;-75
2023/10/31 06:42:10;;;;;;;2.10;0.80;;;10.80;86.50;;;9.87;86.46;96589.88;4954488;28;20520;-73
2023/10/31 06:44:38;;;;;;;0.70;0.70;;;10.80;86.10;;;9.96;86.16;96595.69;4968917;28;20532;-71
2023/10/31 06:47:06;;;;;;;3.40;1.00;;;10.90;86.10;;;9.89;86.07;96593.16;4969514;28;20539;-72
2023/10/31 06:49:32;;;;;;;0.97;0.87;;;10.90;85.90;;;10.10;86.46;96598.84;4967478;28;20493;-74
2023/10/31 06:52:00;;;;;;;1.63;0.90;;;11.00;86.70;;;10.08;84.40;96601.78;4968910;28;20843;-71
2023/10/31 06:54:28;;;;;;;1.73;0.87;;;11.00;85.60;;;10.30;84.85;96617.22;4954026;28;20522;-71
2023/10/31 06:56:55;;;;;;;2.10;1.10;;;11.20;86.10;;;10.43;87.81;96606.13;4953058;28;20476;-69
2023/10/31 06:59:23;;;;;;;2.10;0.90;;;11.20;86.80;;;10.52;84.47;96616.47;4967228;28;20540;-71
2023/10/31 07:01:50;;;;;;;1.03;0.80;;;11.40;85.90;;;10.38;83.36;96616.78;4969274;28;20856;-75
2023/10/31 07:04:18;;;;;;;2.23;0.70;;;11.30;84.90;;;10.18;84.20;96618.13;4973116;28;20482;-74
2023/10/31 07:06:45;;;;;;;1.67;0.50;;;11.20;84.50;;;10.19;84.29;96622.47;4967528;28;21060;-72
2023/10/31 07:09:12;;;;;;;1.23;0.83;;;11.20;85.10;;;10.20;84.24;96637.59;4966640;28;20465;-70
2023/10/31 07:11:40;;;;;;;3.20;0.83;;;11.20;84.80;;;10.25;83.18;96638.75;4944014;28;20483;-72
2023/10/31 07:14:08;;;;;;;2.10;0.80;;;11.10;84.50;;;10.37;83.32;96652.16;4964288;28;20461;-73
2023/10/31 07:16:37;;;;;;;3.90;0.93;;;11.20;84.90;;;10.12;82.78;96646.13;4961599;28;20473;-70
2023/10/31 07:19:04;;;;;;;2.10;1.33;;;11.20;84.20;;;10.23;83.38;96657.06;4967974;28;20839;-78
2023/10/31 07:21:32;;;;;;;2.77;1.50;;;11.20;84.70;;;10.28;83.41;96665.25;4949792;28;20469;-70
2023/10/31 07:23:59;;;;;;;1.60;1.07;;;11.20;84.60;;;10.35;83.16;96661.31;4948481;28;20465;-70
2023/10/31 07:26:27;;;;;;;0.93;0.83;;;11.20;84.30;;;10.38;82.02;96654.59;4967972;28;20604;-69
2023/10/31 07:28:54;;;;;;;5.60;0.90;;;11.30;84.30;;;10.41;82.04;96659.53;4946485;28;20441;-71
2023/10/31 07:31:21;;;;;;;2.73;0.83;;;11.30;84.00;;;10.32;82.31;96661.00;4966501;28;20459;-71
2023/10/31 07:33:50;;;;;;;1.00;0.83;;;11.30;83.90;;;10.38;82.25;96672.69;4968011;28;20448;-71
2023/10/31 07:36:17;;;;;;;1.20;0.90;;;11.30;83.90;;;10.41;81.88;96670.34;4963501;28;20470;-71
2023/10/31 07:38:44;;;;;;;1.70;0.80;;;11.30;83.60;;;10.57;80.84;96670.56;4962775;28;20488;-71
2023/10/31 07:41:13;;;;;;;3.10;1.00;;;11.40;83.50;;;10.37;81.00;96668.34;4944366;28;20820;-74
2023/10/31 07:43:40;;;;;;;1.53;0.80;;;11.30;83.20;;;10.41;79.99;96667.66;4960520;28;20475;-74
2023/10/31 07:46:07;;;;;;;1.00;0.80;;;11.30;83.00;;;10.62;80.29;96673.34;4961492;28;20458;-69
2023/10/31 07:48:34;;;;;;;1.20;0.80;;;11.40;83.40;;;10.59;80.37;96668.44;4965093;28;20462;-69
2023/10/31 07:51:02;;;;;;;2.07;0.80;;;11.50;83.00;;;10.49;79.88;96667.22;4965099;28;20473;-75
2023/10/31 07:53:29;;;;;;;1.77;0.83;;;11.50;82.70;;;10.61;79.74;96683.34;4960499;28;20470;-70
2023/10/31 07:55:58;;;;;;;0.80;0.60;;;11.50;82.80;;;10.55;78.27;96688.91;4963598;28;20468;-69
2023/10/31 07:58:25;;;;;;;0.90;0.70;;;11.50;81.80;;;10.57;78.34;96686.78;4942070;28;20467;-68
2023/10/31 08:00:52;;;;;;;0.80;0.50;;;11.50;81.90;;;10.78;80.03;96693.28;4953479;28;20461;-69
2023/10/31 08:03:20;;;;;;;0.90;0.73;;;11.60;82.50;;;10.82;77.99;96685.47;4968210;28;20485;-70
2023/10/31 08:05:47;;;;;;;1.17;0.70;;;11.70;81.90;;;10.90;78.28;96691.25;4959812;28;20499;-69
2023/10/31 08:08:15;;;;;;;1.47;0.80;;;11.70;82.20;;;10.94;78.14;96691.59;4952017;28;21602;-69
2023/10/31 08:10:44;;;;;;;1.40;1.00;;;11.70;82.10;;;10.72;78.66;96692.41;4959357;28;20572;-69
2023/10/31 08:13:11;;;;;;;3.23;0.53;;;11.70;81.80;;;10.69;77.63;96695.59;4942309;28;20939;-68
2023/10/31 08:15:39;;;;;;;1.07;0.63;;;11.70;81.40;;;10.88;79.36;96706.91;4970849;28;20677;-68
2023/10/31 08:18:06;;;;;;;1.97;0.87;;;11.70;82.20;;;10.94;77.13;96712.41;4954032;28;20481;-70
2023/10/31 08:20:33;;;;;;;2.07;1.20;;;11.80;81.50;;;10.91;77.83;96713.72;4954166;28;20490;-68
2023/10/31 08:23:01;;;;;;;1.00;0.83;;;11.80;81.40;;;10.97;77.23;96707.28;4954487;28;21041;-68
2023/10/31 08:25:30;;;;;;;2.77;0.97;;;11.80;81.10;;;10.84;77.42;96707.66;4964345;28;20451;-69
2023/10/31 08:27:57;;;;;;;1.97;0.67;;;11.80;81.10;;;10.84;77.58;96707.66;4965655;28;20546;-68
2023/10/31 08:30:24;;;;;;;2.47;0.80;;;11.80;81.10;;;11.07;75.79;96717.44;4945921;28;20472;-69
2023/10/31 08:32:51;;;;;;;1.40;0.80;;;11.90;80.80;;;10.91;76.67;96716.41;4946731;28;20508;-69
2023/10/31 08:35:19;;;;;;;2.40;0.87;;;11.80;80.60;;;11.06;75.94;96721.19;4946860;28;20465;-68
2023/10/31 08:37:46;;;;;;;0.97;0.83;;;11.90;80.60;;;10.91;76.52;96724.53;4939913;28;20491;-69
2023/10/31 08:40:13;;;;;;;1.47;0.50;;;11.90;80.40;;;10.88;75.31;96725.81;4945805;28;20461;-69
2023/10/31 08:42:43;;;;;;;0.73;0.70;;;11.80;79.90;;;10.97;75.19;96731.63;4960022;28;20812;-70
2023/10/31 08:45:10;;;;;;;0.83;0.70;;;11.90;80.10;;;10.60;76.74;96708.69;4941799;28;20462;-68
2023/10/31 08:47:38;;;;;;;4.27;1.00;;;11.70;80.30;;;10.95;77.97;96717.53;4957381;28;20466;-69
2023/10/31 08:50:08;;;;;;;0.97;0.90;;;11.80;80.90;;;11.17;77.44;96724.88;4960116;28;20469;-69
2023/10/31 08:52:36;;;;;;;0.80;0.67;;;11.90;81.10;;;11.05;75.15;96717.69;4954738;28;21530;-68
2023/10/31 08:55:04;;;;;;;1.10;0.63;;;12.00;80.10;;;11.12;76.43;96725.63;4960941;28;20557;-68
2023/10/31 08:57:31;;;;;;;2.73;0.80;;;12.00;80.40;;;11.16;75.28;96726.75;4964946;28;20579;-70
2023/10/31 09:00:00;;;;;;;0.83;0.67;;;12.10;80.00;;;11.02;75.83;96725.47;4955277;28;20483;-69
2023/10/31 09:02:27;;;;;;;2.33;0.80;;;12.00;79.90;;;10.88;75.46;96715.03;4963469;28;20994;-68
2023/10/31 09:04:55;;;;;;;0.70;0.60;;;11.90;79.60;;;10.91;75.94;96721.81;4944292;28;20470;-68
2023/10/31 09:07:22;;;;;;;1.20;1.10;;;11.80;79.90;;;10.90;76.15;96722.88;4944576;28;21165;-68
2023/10/31 09:09:50;;;;;;;1.67;0.97;;;11.80;79.90;;;10.79;75.42;96721.09;4966516;28;20452;-69
2023/10/31 09:12:17;;;;;;;1.53;0.80;;;11.70;79.60;;;10.94;76.11;96720.50;4946860;28;20790;-68
2023/10/31 09:14:45;;;;;;;0.60;0.53;;;11.80;80.00;;;11.02;75.30;96720.91;4950556;28;20759;-68
2023/10/31 09:17:14;;;;;;;2.20;0.80;;;11.90;79.90;;;10.78;76.45;96723.00;4959568;28;20473;-68
2023/10/31 09:19:41;;;;;;;1.90;0.77;;;11.80;79.80;;;10.93;76.16;96714.28;4944024;28;20473;-67
2023/10/31 09:22:09;;;;;;;1.77;0.70;;;11.90;80.10;;;10.85;76.80;96729.03;4965679;28;20496;-68
2023/10/31 09:24:36;;;;;;;2.43;0.80;;;11.80;80.10;;;10.51;76.57;96717.44;4966251;28;20513;-69
2023/10/31 09:27:04;;;;;;;4.20;0.70;;;11.60;79.90;;;10.61;77.90;96733.81;4947083;28;20579;-69
2023/10/31 09:29:31;;;;;;;0.53;0.50;;;11.50;80.60;;;10.60;77.88;96721.38;4965984;28;20445;-68
2023/10/31 09:31:59;;;;;;;1.17;0.50;;;11.60;80.60;;;10.63;78.02;96737.91;4965363;28;20476;-68
2023/10/31 09:34:28;;;;;;;1.53;0.50;;;11.60;80.70;;;10.88;78.67;96727.72;4965068;28;20454;-68
2023/10/31 09:36:55;;;;;;;1.00;0.90;;;11.70;81.10;;;11.27;77.77;96727.69;4967266;28;20456;-68
2023/10/31 09:39:22;;;;;;;0.60;0.57;;;12.00;81.70;;;11.31;75.74;96730.72;4958959;28;20856;-70
2023/10/31 09:41:50;;;;;;;2.40;0.83;;;12.20;80.70;;;11.48;75.49;96731.44;4958966;28;20458;-69
2023/10/31 09:44:18;;;;;;;1.17;0.80;;;12.40;80.30;;;11.63;74.37;96735.41;4944258;28;20439;-69
2023/10/31 09:46:46;;;;;;;2.40;0.60;;;12.50;80.00;;;11.69;75.28;96738.97;4967399;28;20452;-70
2023/10/31 09:49:14;;;;;;;0.90;0.80;;;12.50;80.20;;;11.39;75.09;96695.13;4951884;28;21390;-70
2023/10/31 09:51:42;;;;;;;1.23;0.80;;;12.60;80.10;;;11.69;75.85;96747.09;4945366;28;20558;-70
2023/10/31 09:54:13;;;;;;;0.90;0.50;;;12.50;80.40;;;11.88;73.79;96755.69;4957746;28;20458;-69
2023/10/31 09:56:40;;;;;;;1.10;0.80;;;12.70;79.50;;;11.99;73.61;96743.06;4959972;28;20553;-69
2023/10/31 09:59:08;;;;;;;1.50;0.67;;;12.90;79.50;;;11.77;74.36;96746.66;4948491;28;20529;-69
2023/10/31 10:01:36;;;;;;;4.37;0.80;;;12.70;79.50;;;11.69;74.97;96768.75;4964944;28;20935;-70
2023/10/31 10:04:03;;;;;;;1.23;0.87;;;12.70;79.80;;;11.75;75.09;96757.72;4946014;28;20954;-70
2023/10/31 10:06:31;;;;;;;2.47;0.80;;;12.70;80.00;;;11.74;75.39;96756.09;4966073;28;20883;-70
2023/10/31 10:09:02;;;;;;;4.80;0.70;;;12.60;80.20;;;11.14;77.08;96723.47;4960292;28;20455;-72
2023/10/31 10:11:29;;;;;;;0.83;0.60;;;12.50;80.60;;;11.33;77.29;96761.84;4941649;28;20463;-70
2023/10/31 10:13:58;;;;;;;3.10;0.90;;;12.30;80.50;;;11.25;78.22;96770.38;4966441;28;20462;-70
2023/10/31 10:16:33;;;;;;;0.87;0.70;;;12.20;80.90;;;10.99;78.44;96767.31;4967277;28;20459;-70
2023/10/31 10:19:19;;;;;;;2.10;0.80;;;12.00;80.90;;;10.79;79.57;96773.25;4967431;28;20959;-69